Time;durP1;ratioP1;P1;durP2;ratioP2;P2;SDS_P1;SDS_P2;PMS_P1;PMS_P2;Temp;Humidity;BMP_temperature;BMP_pressure;BME280_temperature;BME280_humidity;BME280_pressure;Samples;Min_cycle;Max_cycle;Signal;HPM_P1;HPM_P2
2023/02/02 00:00:17;;;;;;;9.27;2.63;;;;;;;7.84;74.62;100646.47;5044398;28;20056;-63
2023/02/02 00:02:46;;;;;;;9.07;2.63;;;;;;;7.91;73.13;100641.38;5054000;28;20060;-64
2023/02/02 00:05:13;;;;;;;9.00;2.65;;;;;;;7.91;74.51;100635.84;5053762;28;20077;-64
2023/02/02 00:07:41;;;;;;;6.03;2.80;;;;;;;7.91;74.35;100635.84;5051989;28;20049;-64
2023/02/02 00:10:09;;;;;;;4.60;2.50;;;;;;;7.97;73.58;100642.16;5052862;28;20409;-63
2023/02/02 00:12:36;;;;;;;5.35;2.70;;;;;;;8.02;73.62;100633.78;5053396;28;20052;-64
2023/02/02 00:15:04;;;;;;;8.60;3.03;;;;;;;8.05;72.51;100636.81;5036642;28;20057;-64
2023/02/02 00:17:31;;;;;;;5.38;2.38;;;;;;;8.06;73.83;100632.94;5034106;28;20060;-64
2023/02/02 00:20:00;;;;;;;7.47;2.65;;;;;;;8.03;73.85;100630.72;5033514;28;20068;-62
2023/02/02 00:22:27;;;;;;;5.47;2.50;;;;;;;8.06;72.78;100632.06;5037624;28;20064;-63
2023/02/02 00:24:54;;;;;;;5.45;2.63;;;;;;;8.07;73.87;100628.19;5034581;28;20057;-63
2023/02/02 00:27:22;;;;;;;6.57;2.75;;;;;;;8.14;74.02;100628.66;5050946;28;20056;-63
2023/02/02 00:29:52;;;;;;;7.95;3.60;;;;;;;8.14;72.85;100628.66;5053811;28;20049;-64
2023/02/02 00:32:20;;;;;;;7.45;3.50;;;;;;;8.18;74.00;100640.00;5053604;28;20049;-64
2023/02/02 00:34:47;;;;;;;7.28;3.50;;;;;;;8.22;74.69;100646.63;5053245;28;20057;-64
2023/02/02 00:37:15;;;;;;;7.78;3.65;;;;;;;8.24;74.68;100639.66;5049433;28;20056;-64
2023/02/02 00:39:43;;;;;;;8.77;4.30;;;;;;;8.26;74.33;100633.81;5053322;28;20053;-64
2023/02/02 00:42:11;;;;;;;10.95;4.43;;;;;;;8.25;73.61;100626.59;5040161;28;20053;-64
2023/02/02 00:47:23;;;;;;;7.03;3.60;;;;;;;8.24;72.71;100647.16;5035430;28;20517;-64
2023/02/02 00:49:50;;;;;;;8.30;4.28;;;;;;;8.25;73.26;100637.69;5033471;28;20478;-63
2023/02/02 00:52:19;;;;;;;12.85;5.47;;;;;;;8.24;73.24;100627.72;5049000;28;20049;-64
2023/02/02 00:54:46;;;;;;;7.10;4.10;;;;;;;8.21;72.30;100631.94;5052701;28;20057;-63
2023/02/02 00:57:14;;;;;;;8.13;4.70;;;;;;;8.13;73.62;100633.38;5036008;28;20056;-63
2023/02/02 00:59:41;;;;;;;7.70;5.22;;;;;;;7.96;73.29;100635.81;5041522;28;20060;-62
2023/02/02 01:02:09;;;;;;;11.88;5.78;;;;;;;7.99;74.72;100637.16;5052644;28;20045;-64
2023/02/02 01:04:36;;;;;;;13.85;7.03;;;;;;;8.03;73.13;100638.22;5052846;28;20482;-64
2023/02/02 01:07:04;;;;;;;15.20;7.68;;;;;;;7.96;73.67;100638.56;5037109;28;20439;-63
2023/02/02 01:09:32;;;;;;;13.35;7.32;;;;;;;7.96;73.71;100641.34;5034716;28;20057;-64
2023/02/02 01:12:00;;;;;;;11.43;8.57;;;;;;;7.97;74.13;100640.22;5052421;28;20049;-63
2023/02/02 01:14:27;;;;;;;15.20;8.98;;;;;;;8.03;74.63;100643.78;5037579;28;20497;-64
2023/02/02 01:16:54;;;;;;;13.60;9.32;;;;;;;8.02;74.48;100637.41;5032733;28;20408;-64
2023/02/02 01:19:21;;;;;;;13.70;8.15;;;;;;;8.01;75.02;100644.06;5032802;28;20064;-64
2023/02/02 01:21:49;;;;;;;10.65;8.30;;;;;;;8.03;74.27;100644.59;5043668;28;20486;-64
2023/02/02 01:24:17;;;;;;;13.55;8.68;;;;;;;8.05;74.24;100644.31;5050893;28;20057;-63
2023/02/02 01:26:45;;;;;;;16.17;8.57;;;;;;;8.08;74.06;100647.34;5032796;28;20482;-63
2023/02/02 01:29:14;;;;;;;12.10;8.02;;;;;;;8.07;74.22;100648.44;5032163;28;20421;-64
2023/02/02 01:31:42;;;;;;;10.50;6.75;;;;;;;8.13;74.33;100638.94;5047565;28;20045;-64
2023/02/02 01:34:09;;;;;;;15.93;8.25;;;;;;;8.14;74.95;100634.22;5048258;28;20049;-64
2023/02/02 01:36:37;;;;;;;14.63;7.30;;;;;;;8.12;75.56;100637.28;5033195;28;20414;-64
2023/02/02 01:39:04;;;;;;;13.00;6.78;;;;;;;8.11;75.15;100641.19;5036263;28;20049;-64
2023/02/02 01:41:31;;;;;;;12.65;6.72;;;;;;;8.13;75.03;100644.50;5034022;28;20049;-64
2023/02/02 01:44:02;;;;;;;11.68;5.72;;;;;;;8.19;74.46;100644.41;5032077;28;20057;-63
2023/02/02 01:46:30;;;;;;;11.15;5.90;;;;;;;8.23;73.67;100653.81;5032002;28;20049;-64
2023/02/02 01:49:03;;;;;;;12.10;6.00;;;;;;;8.23;74.61;100648.25;5033890;28;20041;-62
2023/02/02 01:51:36;;;;;;;11.02;4.40;;;;;;;8.23;74.74;100653.81;5042000;28;20049;-64
2023/02/02 01:54:08;;;;;;;9.63;5.40;;;;;;;8.26;74.64;100658.78;5049097;28;20049;-64
2023/02/02 01:56:41;;;;;;;8.40;4.53;;;;;;;8.29;75.14;100658.19;5043193;28;20049;-64
2023/02/02 01:59:12;;;;;;;10.13;5.03;;;;;;;8.32;74.43;100657.63;5031835;28;20049;-64
2023/02/02 02:01:40;;;;;;;11.40;4.90;;;;;;;8.36;75.25;100652.28;5031738;28;20065;-64
2023/02/02 02:04:07;;;;;;;11.25;5.28;;;;;;;8.36;75.59;100664.22;5032517;28;20406;-64
2023/02/02 02:06:34;;;;;;;7.90;4.40;;;;;;;8.44;75.44;100662.75;5049653;28;20401;-64
2023/02/02 02:09:04;;;;;;;10.35;4.28;;;;;;;8.48;75.18;100664.69;5051787;28;20386;-63
2023/02/02 02:11:33;;;;;;;8.35;4.18;;;;;;;8.50;74.75;100673.53;5038548;28;20513;-64
2023/02/02 02:17:09;;;;;;;9.05;4.22;;;;;;;8.56;74.82;100676.25;5040899;28;20401;-64
2023/02/02 02:26:43;;;;;;;11.25;5.05;;;;;;;8.68;74.48;100663.59;5053290;28;20060;-64
2023/02/02 02:29:50;;;;;;;10.27;5.05;;;;;;;8.66;74.84;100659.47;5055702;28;20512;-63
2023/02/02 02:32:31;;;;;;;12.57;5.72;;;;;;;8.74;75.48;100658.81;5002259;28;20080;-64
2023/02/02 02:35:05;;;;;;;9.85;5.28;;;;;;;8.80;75.36;100656.75;5038590;28;20052;-63
2023/02/02 02:37:39;;;;;;;10.55;6.65;;;;;;;8.79;75.52;100661.50;5055931;28;20071;-64
2023/02/02 02:40:15;;;;;;;14.55;6.63;;;;;;;8.82;74.44;100652.59;5048531;28;20076;-64
2023/02/02 02:42:48;;;;;;;13.27;6.40;;;;;;;8.80;75.51;100652.06;5035710;28;20056;-63
2023/02/02 02:45:18;;;;;;;11.43;7.22;;;;;;;8.80;75.52;100656.75;5036615;28;20049;-63
2023/02/02 02:47:48;;;;;;;;;;;;;;;8.83;73.85;100657.00;5035335;28;20523;-64
2023/02/02 02:50:15;;;;;;;15.05;7.32;;;;;;;8.82;74.46;100652.59;5038275;28;19928;-63
2023/02/02 02:52:43;;;;;;;14.30;7.53;;;;;;;8.79;73.91;100657.91;5055604;28;20053;-62
2023/02/02 02:55:12;;;;;;;18.25;7.82;;;;;;;8.80;75.07;100662.31;5054100;28;20048;-63
2023/02/02 02:58:15;;;;;;;11.97;7.37;;;;;;;8.80;75.12;100646.50;5051562;28;20409;-64
2023/02/02 03:00:49;;;;;;;12.77;7.00;;;;;;;8.85;74.77;100643.66;4993352;28;20066;-64
2023/02/02 03:03:29;;;;;;;16.23;8.57;;;;;;;8.84;75.28;100642.00;4992974;28;20560;-64
2023/02/02 03:06:05;;;;;;;15.80;8.77;;;;;;;8.90;75.34;100638.03;5024175;28;20048;-63
2023/02/02 03:08:35;;;;;;;17.08;9.20;;;;;;;8.92;75.53;100644.13;5053838;28;20052;-64
2023/02/02 03:11:06;;;;;;;16.45;8.60;;;;;;;8.92;75.26;100649.69;5035675;28;20060;-62
2023/02/02 03:13:34;;;;;;;14.23;9.57;;;;;;;8.94;74.94;100655.75;5035048;28;20061;-63
2023/02/02 03:16:01;;;;;;;19.00;8.48;;;;;;;8.94;74.60;100658.53;5049665;28;20057;-63
2023/02/02 03:18:32;;;;;;;19.52;8.45;;;;;;;8.94;74.82;100666.88;5054899;28;20056;-63
2023/02/02 03:20:59;;;;;;;15.88;7.63;;;;;;;8.92;73.86;100655.22;5053962;28;20049;-64
2023/02/02 03:23:27;;;;;;;14.55;7.22;;;;;;;8.98;74.33;100661.53;5053410;28;20052;-64
2023/02/02 03:25:55;;;;;;;10.82;6.10;;;;;;;8.98;73.99;100653.19;5054664;28;20413;-63
2023/02/02 03:28:25;;;;;;;12.60;6.68;;;;;;;8.88;73.13;100659.72;5054292;28;20053;-63
2023/02/02 03:30:54;;;;;;;13.02;6.63;;;;;;;8.90;74.55;100660.25;5053575;28;20075;-63
2023/02/02 03:33:22;;;;;;;12.50;6.25;;;;;;;8.90;73.75;100654.72;5054401;28;20056;-64
2023/02/02 03:35:51;;;;;;;11.23;5.97;;;;;;;8.96;73.40;100654.63;5052313;28;20053;-63
2023/02/02 03:38:18;;;;;;;12.50;4.80;;;;;;;8.97;73.63;100651.56;5044619;28;20061;-64
2023/02/02 03:40:45;;;;;;;10.15;4.32;;;;;;;8.91;72.71;100653.56;5034560;28;20049;-64
2023/02/02 03:43:13;;;;;;;14.60;5.38;;;;;;;8.90;73.77;100660.25;5033956;28;20049;-64
2023/02/02 03:45:40;;;;;;;11.77;4.50;;;;;;;8.91;73.60;100663.84;5034740;28;20056;-64
2023/02/02 03:48:07;;;;;;;10.45;5.65;;;;;;;8.96;74.08;100666.56;5040631;28;20068;-64
2023/02/02 03:50:35;;;;;;;12.57;4.75;;;;;;;9.00;72.72;100653.72;5054282;28;20057;-63
2023/02/02 03:53:04;;;;;;;9.18;3.85;;;;;;;9.00;73.49;100661.22;5045095;28;20045;-64
2023/02/02 03:55:31;;;;;;;10.60;3.77;;;;;;;9.01;73.63;100665.66;5054152;28;20056;-63
2023/02/02 03:57:58;;;;;;;9.90;3.58;;;;;;;9.02;72.83;100670.91;5054664;28;20056;-60
2023/02/02 04:00:25;;;;;;;11.23;3.65;;;;;;;9.00;73.96;100669.56;5054084;28;20552;-60
2023/02/02 04:02:54;;;;;;;9.75;3.20;;;;;;;8.98;73.22;100667.06;5054192;28;20136;-60
2023/02/02 04:05:21;;;;;;;8.57;3.00;;;;;;;8.99;72.83;100654.00;5051230;28;20049;-61
2023/02/02 04:07:49;;;;;;;9.20;3.20;;;;;;;8.98;74.25;100660.69;5037924;28;20057;-60
2023/02/02 04:10:18;;;;;;;6.18;2.70;;;;;;;9.00;73.04;100661.22;5033284;28;20049;-60
2023/02/02 04:12:45;;;;;;;8.40;2.85;;;;;;;9.00;74.28;100662.06;5033951;28;20052;-61
2023/02/02 04:15:12;;;;;;;6.03;2.55;;;;;;;9.03;73.61;100657.84;5033840;28;20053;-61
2023/02/02 04:17:40;;;;;;;7.60;2.45;;;;;;;9.04;74.33;100652.00;5034418;28;20473;-61
2023/02/02 04:20:08;;;;;;;7.35;2.50;;;;;;;9.02;73.00;100647.88;5033751;28;20057;-61
2023/02/02 04:22:35;;;;;;;5.65;2.55;;;;;;;9.01;73.54;100647.06;5038473;28;20049;-60
2023/02/02 04:25:02;;;;;;;6.78;2.67;;;;;;;8.96;73.29;100655.44;5033823;28;20497;-60
2023/02/02 04:27:32;;;;;;;6.25;2.92;;;;;;;8.99;73.69;100654.84;5033148;28;20490;-61
2023/02/02 04:30:00;;;;;;;5.32;2.35;;;;;;;9.00;74.55;100658.47;5033745;28;20053;-61
2023/02/02 04:32:27;;;;;;;6.60;2.90;;;;;;;9.03;73.61;100660.63;5033488;28;20474;-61
2023/02/02 04:34:54;;;;;;;7.40;2.63;;;;;;;9.02;74.45;100661.75;5033211;28;20061;-61
2023/02/02 04:37:21;;;;;;;8.55;2.72;;;;;;;9.00;74.42;100661.22;5037686;28;20060;-62
2023/02/02 04:39:49;;;;;;;5.45;2.45;;;;;;;9.07;74.91;100656.13;5033460;28;20060;-61
2023/02/02 04:42:16;;;;;;;5.90;2.35;;;;;;;9.05;74.25;100658.38;5047810;28;20072;-60
2023/02/02 04:44:45;;;;;;;6.30;2.83;;;;;;;9.10;75.17;100661.09;5047836;28;20059;-61
2023/02/02 04:47:12;;;;;;;6.75;3.10;;;;;;;9.09;74.47;100663.06;5040360;28;20063;-60
2023/02/02 04:49:40;;;;;;;6.10;3.15;;;;;;;9.15;74.55;100669.34;5050511;28;20055;-60
2023/02/02 04:52:07;;;;;;;6.05;2.60;;;;;;;9.18;74.80;100665.97;5033486;28;20513;-60
2023/02/02 04:54:34;;;;;;;6.53;3.40;;;;;;;9.18;75.29;100673.50;5033263;28;20387;-61
2023/02/02 04:57:01;;;;;;;5.60;3.50;;;;;;;9.21;75.81;100667.31;5033162;28;20064;-62
2023/02/02 04:59:29;;;;;;;7.88;3.90;;;;;;;9.20;74.50;100666.50;5032784;28;20149;-61
2023/02/02 05:02:00;;;;;;;7.55;5.25;;;;;;;9.19;75.36;100656.50;5033049;28;20482;-61
2023/02/02 05:04:27;;;;;;;7.82;5.15;;;;;;;9.06;75.36;100660.03;5034642;28;20049;-61
2023/02/02 05:06:55;;;;;;;7.78;5.30;;;;;;;9.02;76.46;100647.88;5032678;28;20060;-60
2023/02/02 05:09:22;;;;;;;10.45;7.32;;;;;;;9.02;76.09;100657.03;5032555;28;20438;-61
2023/02/02 05:11:49;;;;;;;12.57;8.52;;;;;;;9.03;75.26;100649.50;5033085;28;20425;-60
2023/02/02 05:14:18;;;;;;;13.80;9.10;;;;;;;9.00;77.03;100659.28;5032418;28;20049;-61
2023/02/02 05:16:45;;;;;;;14.37;10.67;;;;;;;9.03;76.35;100655.06;5040428;28;20052;-60
2023/02/02 05:19:15;;;;;;;18.92;12.45;;;;;;;9.06;75.71;100660.03;5050088;28;21023;-61
2023/02/02 05:21:44;;;;;;;;;;;;;;;9.02;76.53;100659.81;5033299;28;20054;-62
2023/02/02 05:24:11;;;;;;;21.45;13.73;;;;;;;9.04;76.39;100651.19;5032319;28;20361;-62
2023/02/02 05:26:39;;;;;;;23.92;13.60;;;;;;;9.00;76.53;100652.91;5032617;28;20061;-61
2023/02/02 05:29:08;;;;;;;28.58;14.20;;;;;;;8.99;77.80;100654.00;5032385;28;20049;-61
2023/02/02 05:31:35;;;;;;;30.63;14.63;;;;;;;9.05;77.69;100652.81;5044074;28;20056;-61
2023/02/02 05:34:03;;;;;;;26.45;13.57;;;;;;;9.01;76.42;100662.88;5050933;28;20053;-61
2023/02/02 05:36:32;;;;;;;23.77;13.43;;;;;;;9.08;77.45;100657.78;5051691;28;20052;-61
2023/02/02 05:38:59;;;;;;;27.88;13.95;;;;;;;9.11;76.63;100662.72;5052321;28;20493;-60
2023/02/02 05:41:27;;;;;;;21.27;14.13;;;;;;;9.10;76.96;100661.91;5040479;28;20069;-61
2023/02/02 05:43:54;;;;;;;25.00;14.60;;;;;;;9.11;76.96;100665.50;5036114;28;20048;-61
2023/02/02 05:46:21;;;;;;;23.52;13.35;;;;;;;9.15;77.30;100661.00;5031958;28;20061;-61
2023/02/02 05:48:48;;;;;;;24.02;13.40;;;;;;;9.18;75.96;100656.81;5035107;28;20057;-61
2023/02/02 05:51:19;;;;;;;27.77;14.55;;;;;;;9.16;76.03;100653.50;5032131;28;20084;-60
2023/02/02 05:53:47;;;;;;;19.45;12.20;;;;;;;9.20;75.36;100648.97;5038912;28;20053;-60
2023/02/02 05:56:15;;;;;;;26.10;13.07;;;;;;;9.20;76.17;100660.94;5031829;28;20064;-61
2023/02/02 05:58:43;;;;;;;22.60;12.15;;;;;;;9.20;76.00;100655.38;5035102;28;20053;-60
2023/02/02 06:01:10;;;;;;;27.10;13.57;;;;;;;9.23;76.24;100652.00;5046937;28;20057;-60
2023/02/02 06:03:37;;;;;;;24.95;13.07;;;;;;;9.24;75.30;100655.59;5047848;28;20060;-61
2023/02/02 06:06:05;;;;;;;33.58;13.35;;;;;;;9.24;76.57;100662.00;5046622;28;20049;-61
2023/02/02 06:08:32;;;;;;;23.58;12.27;;;;;;;9.24;75.32;100659.22;5051166;28;20061;-61
2023/02/02 06:11:08;;;;;;;23.40;13.05;;;;;;;9.26;75.35;100662.53;5044763;28;20124;-60
2023/02/02 06:13:36;;;;;;;22.23;11.40;;;;;;;9.27;74.96;100653.03;5051188;28;20045;-61
2023/02/02 06:16:03;;;;;;;20.77;12.23;;;;;;;9.30;75.89;100666.34;5047690;28;20060;-61
2023/02/02 06:18:30;;;;;;;26.63;13.10;;;;;;;9.31;75.79;100668.00;5042678;28;20053;-60
2023/02/02 06:20:58;;;;;;;23.08;12.65;;;;;;;9.27;75.35;100674.47;5043362;28;20056;-60
2023/02/02 06:23:25;;;;;;;23.55;12.38;;;;;;;9.29;76.21;100667.47;5039766;28;20405;-61
2023/02/02 06:25:52;;;;;;;28.00;12.65;;;;;;;9.27;75.56;100678.06;5032110;28;20053;-60
2023/02/02 06:28:21;;;;;;;28.00;12.35;;;;;;;9.30;76.44;100677.47;5046685;28;20505;-61
2023/02/02 06:30:48;;;;;;;22.02;11.43;;;;;;;9.31;76.57;100676.34;5038646;28;20053;-61
2023/02/02 06:33:16;;;;;;;20.70;11.80;;;;;;;9.28;75.38;100681.66;5039017;28;20046;-61
2023/02/02 06:35:43;;;;;;;24.58;12.48;;;;;;;9.20;75.40;100676.78;5043463;28;20072;-61
2023/02/02 06:38:10;;;;;;;23.48;13.23;;;;;;;9.19;76.61;100684.28;5052496;28;20500;-60
2023/02/02 06:40:38;;;;;;;23.70;13.32;;;;;;;9.21;77.16;100684.00;5051575;28;20060;-61
2023/02/02 06:43:05;;;;;;;26.88;12.43;;;;;;;9.21;75.69;100693.16;5050681;28;20049;-60
2023/02/02 06:45:38;;;;;;;24.77;11.70;;;;;;;9.27;75.54;100688.34;5050379;28;20053;-61
2023/02/02 06:48:09;;;;;;;24.58;12.63;;;;;;;9.25;76.18;100691.44;5048624;28;20072;-60
2023/02/02 06:50:37;;;;;;;20.60;11.85;;;;;;;9.30;75.80;100691.38;5050085;28;20060;-62
2023/02/02 06:53:05;;;;;;;21.20;12.63;;;;;;;9.27;76.26;100691.13;5034492;28;20056;-60
2023/02/02 06:55:33;;;;;;;20.10;11.77;;;;;;;9.33;75.03;100693.53;5031195;28;20060;-61
2023/02/02 06:58:01;;;;;;;21.17;11.63;;;;;;;9.33;75.54;100693.53;5031942;28;20061;-60
2023/02/02 07:00:29;;;;;;;26.75;12.35;;;;;;;9.32;76.03;100697.47;5031604;28;20054;-61
2023/02/02 07:02:58;;;;;;;21.20;11.23;;;;;;;9.33;76.05;100704.66;5041395;28;20060;-60
2023/02/02 07:05:28;;;;;;;26.40;12.43;;;;;;;9.34;76.09;100711.88;5047011;28;20057;-61
2023/02/02 07:07:55;;;;;;;23.58;12.65;;;;;;;9.34;76.13;100711.88;5044384;28;20060;-60
2023/02/02 07:10:23;;;;;;;24.05;11.55;;;;;;;9.35;76.19;100715.47;5042078;28;20049;-61
2023/02/02 07:12:50;;;;;;;25.73;12.15;;;;;;;9.39;75.58;100719.31;5052116;28;20428;-61
2023/02/02 07:15:17;;;;;;;21.63;11.35;;;;;;;9.38;75.29;100717.66;5050532;28;20049;-61
2023/02/02 07:17:45;;;;;;;19.02;10.85;;;;;;;9.30;76.24;100721.94;5052246;28;20057;-61
2023/02/02 07:20:13;;;;;;;21.70;11.45;;;;;;;9.36;76.01;100719.91;5047868;28;20060;-61
2023/02/02 07:22:41;;;;;;;20.17;11.85;;;;;;;9.29;77.06;100720.28;5046318;28;20060;-61
2023/02/02 07:25:09;;;;;;;20.27;11.45;;;;;;;9.37;77.54;100726.31;5051695;28;20080;-61
2023/02/02 07:27:37;;;;;;;21.23;11.35;;;;;;;9.38;77.37;100723.22;5048319;28;20124;-62
2023/02/02 07:30:05;;;;;;;19.35;10.80;;;;;;;9.37;76.34;100726.31;5051054;28;20073;-62
2023/02/02 07:32:33;;;;;;;19.55;11.38;;;;;;;9.41;77.26;100721.78;5036479;28;20053;-62
2023/02/02 07:35:00;;;;;;;20.25;10.48;;;;;;;9.42;76.01;100729.00;5045672;28;20048;-61
2023/02/02 07:37:29;;;;;;;19.08;11.10;;;;;;;9.38;75.84;100727.94;5046830;28;20115;-61
2023/02/02 07:39:56;;;;;;;25.90;11.90;;;;;;;9.41;76.27;100733.75;5052974;28;20508;-61
2023/02/02 07:42:23;;;;;;;24.45;11.90;;;;;;;9.45;77.13;100736.72;5051761;28;20053;-60
2023/02/02 07:44:53;;;;;;;18.52;10.85;;;;;;;9.43;76.15;100737.06;5055804;28;20489;-62
2023/02/02 07:47:20;;;;;;;19.48;11.55;;;;;;;9.33;76.05;100738.00;5051927;28;20059;-64
2023/02/02 07:49:47;;;;;;;21.27;11.63;;;;;;;9.37;76.00;100734.66;5054510;28;20044;-64
2023/02/02 07:52:15;;;;;;;21.67;11.02;;;;;;;9.42;77.16;100729.00;5054428;28;20056;-64
2023/02/02 07:54:44;;;;;;;21.40;12.15;;;;;;;9.51;75.97;100729.97;5054236;28;20472;-64
2023/02/02 07:57:12;;;;;;;24.55;12.70;;;;;;;9.55;75.63;100729.09;5037836;28;20053;-64
2023/02/02 07:59:39;;;;;;;20.38;12.13;;;;;;;9.46;75.83;100732.84;5033868;28;20057;-63
2023/02/02 08:02:06;;;;;;;22.15;10.25;;;;;;;9.49;75.67;100735.84;5045139;28;20054;-61
2023/02/02 08:04:34;;;;;;;22.42;9.95;;;;;;;9.48;76.08;100738.94;5034091;28;20398;-61
2023/02/02 08:07:01;;;;;;;21.55;11.27;;;;;;;9.46;75.29;100750.34;5050124;28;20079;-60
2023/02/02 08:09:28;;;;;;;20.15;9.57;;;;;;;9.49;76.22;100735.00;5050927;28;20053;-64
2023/02/02 08:12:00;;;;;;;20.15;11.00;;;;;;;9.50;75.33;100745.84;5052003;28;20053;-64
2023/02/02 08:14:28;;;;;;;18.45;10.27;;;;;;;9.50;75.04;100748.63;5054313;28;20500;-61
2023/02/02 08:16:55;;;;;;;21.38;10.85;;;;;;;9.53;75.78;100744.41;5047239;28;20132;-61
2023/02/02 08:19:22;;;;;;;16.77;9.50;;;;;;;9.59;75.42;100743.19;5033755;28;20049;-61
2023/02/02 08:21:49;;;;;;;17.60;10.02;;;;;;;9.52;75.04;100746.38;5033788;28;20367;-60
2023/02/02 08:24:17;;;;;;;18.27;9.85;;;;;;;9.56;75.40;100760.50;5036873;28;20041;-61
2023/02/02 08:26:44;;;;;;;18.10;10.40;;;;;;;9.58;75.04;100758.25;5053097;28;20131;-61
2023/02/02 08:29:16;;;;;;;18.75;9.65;;;;;;;9.64;74.85;100753.41;5053974;28;20486;-61
2023/02/02 08:31:45;;;;;;;20.85;10.32;;;;;;;9.64;75.17;100765.38;5051967;28;20075;-61
2023/02/02 08:34:13;;;;;;;18.05;9.45;;;;;;;9.69;75.69;100762.50;5053830;28;20387;-61
2023/02/02 08:36:41;;;;;;;17.95;9.50;;;;;;;9.72;74.72;100767.50;5052603;28;20382;-61
2023/02/02 08:39:11;;;;;;;18.65;9.82;;;;;;;9.73;74.69;100771.91;5053156;28;20049;-64
2023/02/02 08:41:39;;;;;;;15.15;9.45;;;;;;;9.77;75.14;100772.16;5036401;28;20378;-63
2023/02/02 08:44:06;;;;;;;14.38;8.60;;;;;;;9.77;74.63;100779.66;5033415;28;20064;-64
2023/02/02 08:46:35;;;;;;;16.95;9.02;;;;;;;9.83;73.88;100778.47;5040804;28;20068;-64
2023/02/02 08:49:03;;;;;;;17.93;9.93;;;;;;;9.83;74.14;100778.47;5052221;28;20060;-64
2023/02/02 08:51:30;;;;;;;14.50;9.48;;;;;;;9.87;74.03;100768.34;5052767;28;20049;-63
2023/02/02 08:53:58;;;;;;;17.85;10.02;;;;;;;9.94;74.01;100779.94;5052800;28;20057;-64
2023/02/02 08:56:25;;;;;;;18.02;10.75;;;;;;;9.96;74.45;100783.25;5046207;28;20057;-64
2023/02/02 08:58:54;;;;;;;14.50;9.85;;;;;;;10.03;73.70;100777.31;5033275;28;20053;-64
2023/02/02 09:01:23;;;;;;;16.07;9.63;;;;;;;9.94;73.81;100791.91;5033250;28;20810;-64
2023/02/02 09:03:55;;;;;;;15.68;10.25;;;;;;;10.04;73.76;100784.53;5032927;28;20053;-64
2023/02/02 09:06:27;;;;;;;16.35;9.95;;;;;;;10.06;73.35;100796.19;5043601;28;20056;-64
2023/02/02 09:08:54;;;;;;;16.60;9.35;;;;;;;10.02;74.04;100798.75;5052525;28;20053;-64
2023/02/02 09:11:23;;;;;;;11.70;8.70;;;;;;;10.04;74.04;100809.59;5052578;28;20057;-64
2023/02/02 09:13:55;;;;;;;14.35;9.20;;;;;;;10.03;73.65;100811.50;5051517;28;20056;-64
2023/02/02 09:16:25;;;;;;;13.63;8.63;;;;;;;10.03;73.14;100805.94;5050847;28;20053;-61
2023/02/02 09:18:54;;;;;;;13.35;8.65;;;;;;;10.01;73.15;100813.78;5052566;28;20060;-61
2023/02/02 09:21:22;;;;;;;13.65;8.60;;;;;;;9.98;73.49;100821.91;5052810;28;20394;-64
2023/02/02 09:23:52;;;;;;;12.95;7.97;;;;;;;10.02;73.36;100826.56;5052597;28;20052;-64
2023/02/02 09:26:21;;;;;;;11.45;8.38;;;;;;;10.08;73.67;100830.94;5052139;28;20482;-64
2023/02/02 09:28:50;;;;;;;15.18;9.50;;;;;;;10.09;73.34;100826.19;5031887;28;20065;-64
2023/02/02 09:31:19;;;;;;;9.37;7.37;;;;;;;10.03;73.74;100833.78;5042741;28;20053;-63
2023/02/02 09:33:46;;;;;;;13.37;7.37;;;;;;;10.02;73.08;100831.31;5051705;28;20063;-64
2023/02/02 09:36:17;;;;;;;12.93;8.43;;;;;;;10.13;73.84;100841.97;5052305;28;20487;-64
2023/02/02 09:38:44;;;;;;;10.48;7.50;;;;;;;10.21;73.16;100845.22;5052282;28;20064;-64
2023/02/02 09:41:50;;;;;;;10.48;7.15;;;;;;;10.23;72.98;100848.53;5052145;28;20378;-64
2023/02/02 09:44:28;;;;;;;13.40;7.70;;;;;;;10.19;72.78;100856.66;5039832;28;20422;-64
2023/02/02 09:47:07;;;;;;;7.85;6.80;;;;;;;10.18;73.03;100857.75;5049663;28;20052;-64
2023/02/02 09:49:41;;;;;;;9.13;6.70;;;;;;;10.24;72.71;100866.88;5052059;28;20478;-64
2023/02/02 09:52:14;;;;;;;8.00;6.38;;;;;;;10.21;72.36;100864.72;5052211;28;20060;-64
2023/02/02 09:54:44;;;;;;;8.80;6.47;;;;;;;10.22;72.05;100863.56;5051966;28;20135;-64
2023/02/02 09:57:17;;;;;;;9.80;6.65;;;;;;;10.19;72.53;100875.31;5052087;28;20057;-64
2023/02/02 09:59:49;;;;;;;9.90;6.28;;;;;;;10.21;72.61;100873.88;5050052;28;20068;-62
2023/02/02 10:02:21;;;;;;;10.75;7.05;;;;;;;10.20;72.89;100888.09;5041042;28;20461;-60
2023/02/02 10:04:52;;;;;;;7.78;6.22;;;;;;;10.24;72.56;100884.41;5051805;28;20056;-60
2023/02/02 10:07:29;;;;;;;9.13;6.90;;;;;;;10.28;72.49;100884.63;5052093;28;20056;-61
2023/02/02 10:10:02;;;;;;;9.48;7.13;;;;;;;10.33;73.27;100887.34;5046733;28;20056;-61
2023/02/02 10:12:36;;;;;;;9.52;7.00;;;;;;;10.33;72.41;100892.91;5032459;28;20470;-61
2023/02/02 10:15:12;;;;;;;8.48;6.60;;;;;;;10.32;72.34;100891.28;5040628;28;20041;-60
2023/02/02 10:17:46;;;;;;;12.90;8.20;;;;;;;10.31;72.65;100889.59;5042629;28;20510;-60
2023/02/02 10:20:33;;;;;;;8.98;7.93;;;;;;;10.35;73.26;100893.44;5032115;28;20053;-61
2023/02/02 10:23:11;;;;;;;11.07;7.95;;;;;;;10.40;72.87;100904.53;5032522;28;20053;-60
2023/02/02 10:25:45;;;;;;;8.70;7.72;;;;;;;10.36;72.22;100903.47;5031226;28;20056;-61
2023/02/02 10:28:27;;;;;;;10.65;8.38;;;;;;;10.40;72.12;100901.72;5031730;28;20054;-60
2023/02/02 10:31:01;;;;;;;10.68;8.15;;;;;;;10.37;72.52;100907.88;5036687;28;20535;-60
2023/02/02 10:33:36;;;;;;;10.25;8.48;;;;;;;10.34;71.66;100905.72;5051973;28;20402;-61
2023/02/02 10:36:15;;;;;;;10.57;7.93;;;;;;;10.34;72.14;100916.88;5039215;28;20387;-61
2023/02/02 10:38:53;;;;;;;12.43;9.10;;;;;;;10.36;72.60;100915.44;5049173;28;20049;-60
2023/02/02 10:41:29;;;;;;;9.63;8.50;;;;;;;10.33;72.28;100924.41;5051720;28;20057;-61
2023/02/02 10:44:07;;;;;;;10.90;8.27;;;;;;;10.29;72.98;100933.59;5051929;28;20049;-61
2023/02/02 10:46:40;;;;;;;18.23;14.00;;;;;;;10.28;73.17;100924.44;5042592;28;20076;-60
2023/02/02 10:49:26;;;;;;;14.45;9.80;;;;;;;10.29;72.93;100933.59;5055589;28;20064;-61
2023/02/02 10:52:00;;;;;;;11.57;9.38;;;;;;;10.28;73.24;100923.59;5055391;28;20398;-61
2023/02/02 10:54:42;;;;;;;12.77;10.32;;;;;;;10.26;73.33;100932.25;5055334;28;20049;-61
2023/02/02 10:57:14;;;;;;;17.92;11.02;;;;;;;10.16;73.71;100932.41;5046127;28;20398;-60
2023/02/02 10:59:57;;;;;;;16.83;12.43;;;;;;;10.08;73.77;100925.56;5035509;28;20056;-61
2023/02/02 11:02:27;;;;;;;16.63;12.80;;;;;;;10.13;74.17;100936.63;5035842;28;20049;-64
2023/02/02 11:07:36;;;;;;;17.70;13.20;;;;;;;10.18;74.03;100932.09;5022184;28;20053;-61
2023/02/02 11:10:05;;;;;;;17.52;14.43;;;;;;;10.10;74.23;100933.59;5055567;28;20053;-60
2023/02/02 11:12:35;;;;;;;22.90;16.33;;;;;;;10.09;73.80;100934.72;5054317;28;20049;-60
2023/02/02 11:15:04;;;;;;;;;;;;;;;10.04;73.52;100935.66;5053415;28;20045;-63
2023/02/02 11:17:32;;;;;;;20.98;14.73;;;;;;;10.06;73.93;100943.69;5036474;28;19921;-63
2023/02/02 11:19:59;;;;;;;19.08;15.32;;;;;;;10.05;73.91;100942.84;5054980;28;20400;-64
2023/02/02 11:22:32;;;;;;;20.00;15.93;;;;;;;10.05;74.03;100939.25;5038498;28;20056;-64
2023/02/02 11:25:06;;;;;;;19.92;17.08;;;;;;;10.18;73.69;100935.72;5036267;28;20528;-63
2023/02/02 11:27:39;;;;;;;22.52;17.58;;;;;;;10.24;74.29;100948.44;5035159;28;20045;-64
2023/02/02 11:30:21;;;;;;;22.70;18.02;;;;;;;10.34;73.77;100945.53;5048439;28;20052;-64
2023/02/02 11:32:49;;;;;;;19.70;16.45;;;;;;;10.33;73.27;100948.59;5054771;28;20057;-64
2023/02/02 11:35:22;;;;;;;20.17;14.85;;;;;;;10.32;73.49;100944.19;5055128;28;20497;-64
2023/02/02 11:38:14;;;;;;;18.80;15.68;;;;;;;10.35;73.49;100938.00;5054174;28;20052;-64
2023/02/02 11:40:46;;;;;;;22.15;17.08;;;;;;;10.40;73.98;100935.16;5047631;28;20056;-60
2023/02/02 11:43:19;;;;;;;20.05;16.42;;;;;;;10.41;73.32;100949.91;5053762;28;20065;-60
2023/02/02 11:45:53;;;;;;;22.45;14.88;;;;;;;10.50;72.58;100936.97;5033747;28;20060;-61
2023/02/02 11:48:24;;;;;;;23.20;15.93;;;;;;;10.40;72.75;100939.91;5034368;28;20049;-64
2023/02/02 11:50:53;;;;;;;25.08;17.08;;;;;;;10.53;73.29;100937.16;5034691;28;20486;-64